Time;durP1;ratioP1;P1;durP2;ratioP2;P2;SDS_P1;SDS_P2;PMS_P1;PMS_P2;Temp;Humidity;BMP_temperature;BMP_pressure;BME280_temperature;BME280_humidity;BME280_pressure;Samples;Min_cycle;Max_cycle;Signal;HPM_P1;HPM_P2
2022/11/12 00:05:37;;;;;;;4.10;2.05;;;;;;;18.82;55.47;102651.34;4988115;28;21067;-43
2022/11/12 00:08:03;;;;;;;3.38;1.98;;;;;;;18.80;55.23;102649.66;4995367;28;20029;-43
2022/11/12 00:10:30;;;;;;;4.72;1.90;;;;;;;18.80;55.56;102652.28;4996043;28;20037;-43
2022/11/12 00:12:55;;;;;;;2.72;1.90;;;;;;;18.79;55.59;102646.13;4994772;28;20033;-43
2022/11/12 00:15:21;;;;;;;5.40;2.10;;;;;;;18.80;55.63;102645.25;4980670;28;20037;-43
2022/11/12 00:17:46;;;;;;;4.55;2.33;;;;;;;18.79;55.49;102648.78;4998628;28;20356;-43
2022/11/12 00:20:32;;;;;;;3.85;2.65;;;;;;;18.81;55.28;102640.84;4996828;28;20053;-43
2022/11/12 00:22:57;;;;;;;5.45;2.10;;;;;;;18.80;55.54;102644.38;4993770;28;20033;-43
2022/11/12 00:25:23;;;;;;;2.88;1.90;;;;;;;18.77;55.52;102640.06;5001869;28;20038;-43
2022/11/12 00:27:49;;;;;;;3.50;1.67;;;;;;;18.77;55.51;102639.19;5004924;28;20111;-44
2022/11/12 00:30:14;;;;;;;3.38;1.90;;;;;;;18.78;55.53;102640.94;5000999;28;20029;-44
2022/11/12 00:32:40;;;;;;;4.15;2.00;;;;;;;18.78;55.36;102638.28;5000465;28;20426;-44
2022/11/12 00:35:07;;;;;;;4.07;1.77;;;;;;;18.77;55.54;102650.59;4998081;28;20074;-43
2022/11/12 00:37:32;;;;;;;2.58;1.80;;;;;;;18.75;55.31;102649.75;4996300;28;20141;-43
2022/11/12 00:39:58;;;;;;;1.92;1.67;;;;;;;18.75;55.42;102654.16;4980610;28;21173;-43
2022/11/12 00:42:23;;;;;;;3.83;1.85;;;;;;;18.76;55.48;102653.25;4985333;28;20042;-45
2022/11/12 00:44:52;;;;;;;3.80;2.10;;;;;;;18.76;55.57;102658.50;4966698;28;20030;-43
2022/11/12 00:47:17;;;;;;;5.85;2.13;;;;;;;18.76;55.46;102647.97;4997501;28;20053;-43
2022/11/12 00:49:43;;;;;;;3.08;2.10;;;;;;;18.75;55.52;102648.91;4999277;28;20630;-43
2022/11/12 00:52:08;;;;;;;3.15;1.88;;;;;;;18.74;55.34;102657.69;4998575;28;20542;-43
2022/11/12 00:54:33;;;;;;;3.78;1.98;;;;;;;18.73;55.45;102662.09;4995973;28;20038;-40
2022/11/12 00:56:59;;;;;;;3.30;1.80;;;;;;;18.73;55.48;102653.31;5002957;28;20038;-43
2022/11/12 00:59:24;;;;;;;2.63;1.80;;;;;;;18.72;55.54;102657.72;4991116;28;20111;-43
2022/11/12 01:01:53;;;;;;;2.45;1.60;;;;;;;18.72;55.47;102667.41;4998446;28;20038;-44
2022/11/12 01:04:18;;;;;;;3.28;1.50;;;;;;;18.72;55.49;102667.41;4996392;28;20054;-42
2022/11/12 01:06:59;;;;;;;2.65;1.83;;;;;;;18.72;55.11;102667.41;5003270;28;20045;-43
2022/11/12 01:12:11;;;;;;;2.60;2.00;;;;;;;18.70;55.40;102670.94;4962532;28;20136;-43
2022/11/12 01:14:57;;;;;;;4.15;2.30;;;;;;;18.69;55.51;102663.06;4994187;28;20054;-43
2022/11/12 01:35:48;;;;;;;3.25;1.92;;;;;;;18.67;55.44;102667.50;4693655;30;20827;-43
2022/11/12 01:38:57;;;;;;;2.95;2.13;;;;;;;18.67;55.35;102665.75;4702065;30;20077;-42
2022/11/12 01:47:42;;;;;;;2.83;1.67;;;;;;;18.65;55.40;102661.44;4761218;29;20043;-43
2022/11/12 01:50:32;;;;;;;3.60;2.13;;;;;;;18.66;55.41;102668.41;4755753;29;20070;-43
2022/11/12 01:53:05;;;;;;;2.45;1.80;;;;;;;18.64;55.27;102664.94;4939199;28;20042;-43
2022/11/12 01:55:36;;;;;;;2.30;1.73;;;;;;;18.64;55.61;102667.59;4971698;28;20034;-44
2022/11/12 01:58:10;;;;;;;3.67;1.98;;;;;;;18.64;55.36;102667.59;4989405;28;20038;-44
2022/11/12 02:00:39;;;;;;;3.17;1.93;;;;;;;18.65;55.45;102667.56;4995841;28;20059;-44
2022/11/12 02:03:11;;;;;;;3.10;1.95;;;;;;;18.64;55.39;102664.94;4992941;28;20033;-43
2022/11/12 02:05:41;;;;;;;2.92;1.90;;;;;;;18.63;55.42;102664.06;4995809;28;20034;-43
2022/11/12 02:08:14;;;;;;;2.53;1.65;;;;;;;18.63;55.43;102660.56;4996987;28;20030;-43
2022/11/12 02:10:39;;;;;;;3.42;1.80;;;;;;;18.63;55.48;102665.84;5000032;28;20041;-43
2022/11/12 02:15:59;;;;;;;2.92;1.90;;;;;;;18.61;55.40;102660.63;4997144;28;20045;-43
2022/11/12 02:18:48;;;;;;;2.80;1.95;;;;;;;18.60;55.48;102658.88;4995909;28;20651;-43
2022/11/12 02:21:45;;;;;;;2.90;2.00;;;;;;;18.61;55.56;102659.75;4981044;28;20046;-43
2022/11/12 02:24:51;;;;;;;3.03;1.50;;;;;;;18.59;55.09;102662.44;5000132;28;20037;-43
2022/11/12 02:28:09;;;;;;;2.15;1.52;;;;;;;18.59;55.13;102665.06;4978583;28;20153;-44
2022/11/12 02:35:10;;;;;;;3.88;1.73;;;;;;;18.58;55.18;102665.97;4826076;29;20048;-43
2022/11/12 02:37:55;;;;;;;2.42;1.60;;;;;;;18.59;55.20;102674.75;4858366;29;20052;-44
2022/11/12 02:41:17;;;;;;;3.33;1.92;;;;;;;18.58;55.43;102671.22;4863929;29;20037;-43
2022/11/12 02:43:48;;;;;;;3.67;2.20;;;;;;;18.58;55.56;102671.22;4818890;29;20045;-43
2022/11/12 02:46:13;;;;;;;3.50;1.95;;;;;;;18.57;55.51;102668.66;4918700;29;20100;-43
2022/11/12 02:48:41;;;;;;;2.42;1.80;;;;;;;18.57;55.45;102668.66;4913953;29;20587;-43
2022/11/12 02:51:07;;;;;;;3.10;1.83;;;;;;;18.57;55.47;102673.91;4914739;29;20054;-43
2022/11/12 02:56:42;;;;;;;3.30;1.98;;;;;;;18.57;55.08;102673.91;4864784;29;21140;-43
2022/11/12 02:59:16;;;;;;;2.40;1.65;;;;;;;18.56;55.31;102672.19;4937526;28;20039;-43
2022/11/12 03:05:21;;;;;;;2.53;1.90;;;;;;;18.54;55.31;102666.94;4939081;29;19918;-43
2022/11/12 03:11:10;;;;;;;2.47;1.75;;;;;;;18.54;55.20;102669.56;4898831;29;20106;-43
2022/11/12 03:14:16;;;;;;;1.92;1.40;;;;;;;18.54;55.45;102666.09;4933785;29;20043;-43
2022/11/12 05:15:30;;;;;;;2.40;1.77;;;;;;;18.41;55.25;102594.44;4751670;29;20079;-42
2022/11/12 05:24:50;;;;;;;2.78;1.95;;;;;;;18.40;55.09;102591.81;4657823;30;2002516;-43
2022/11/12 05:28:29;;;;;;;2.13;1.80;;;;;;;18.41;54.78;102589.16;4748559;30;20125;-42
2022/11/12 05:30:48;;;;;;;1.95;1.73;;;;;;;18.41;55.23;102581.28;4695430;30;20143;-42
2022/11/12 05:33:20;;;;;;;2.33;2.00;;;;;;;18.41;55.15;102577.78;4875252;29;20044;-42
2022/11/12 05:39:34;;;;;;;2.20;1.65;;;;;;;18.38;55.33;102585.75;4838773;29;20571;-42
2022/11/12 05:59:43;;;;;;;2.45;1.85;;;;;;;18.35;55.37;102591.09;4804825;29;20199;-42
2022/11/12 06:03:20;;;;;;;2.00;1.63;;;;;;;18.35;55.38;102584.06;4797670;29;20082;-43
2022/11/12 06:06:33;;;;;;;1.73;1.60;;;;;;;18.32;55.55;102581.50;4822478;29;20050;-42
2022/11/12 06:09:21;;;;;;;3.40;2.00;;;;;;;18.34;55.43;102587.56;4857251;29;20044;-42
2022/11/12 06:23:17;;;;;;;3.08;2.30;;;;;;;18.46;54.96;102602.22;4892177;29;20080;-42
2022/11/12 06:55:23;;;;;;;2.00;1.70;;;;;;;19.03;53.91;102610.41;4832390;29;20061;-42
2022/11/12 07:29:56;;;;;;;2.28;1.85;;;;;;;19.21;53.07;102638.88;4814971;29;20042;-44
2022/11/12 07:32:57;;;;;;;2.38;1.63;;;;;;;19.22;53.55;102638.00;4767018;29;20055;-44
2022/11/12 07:47:21;;;;;;;2.33;1.85;;;;;;;19.25;53.14;102630.00;4882656;29;20044;-44
2022/11/12 08:00:07;;;;;;;2.08;1.33;;;;;;;19.34;53.42;102636.81;5127252;27;20388;-43
2022/11/12 08:20:43;;;;;;;5.03;1.92;;;;;;;19.25;53.24;102638.75;4793261;29;20096;-46
2022/11/12 08:23:09;;;;;;;6.70;2.03;;;;;;;19.24;53.11;102637.03;4890406;28;20050;-42
2022/11/12 08:25:35;;;;;;;2.97;2.25;;;;;;;19.22;53.10;102645.88;5045764;28;20061;-42
2022/11/12 08:28:01;;;;;;;5.28;2.30;;;;;;;19.19;53.01;102638.91;5014073;28;20042;-37
2022/11/12 08:30:28;;;;;;;5.00;2.05;;;;;;;19.17;53.19;102635.47;5010077;28;20029;-36
2022/11/12 08:32:58;;;;;;;4.53;2.17;;;;;;;19.16;53.10;102635.53;5014449;28;20034;-37
2022/11/12 08:35:25;;;;;;;8.52;2.55;;;;;;;19.14;53.15;102630.28;5014898;28;20743;-36
2022/11/12 08:37:51;;;;;;;3.42;1.88;;;;;;;19.16;53.09;102638.16;5009708;28;20045;-37
2022/11/12 08:40:17;;;;;;;6.22;2.10;;;;;;;19.13;53.26;102632.97;5013482;28;20045;-37
2022/11/12 08:42:42;;;;;;;8.30;2.42;;;;;;;19.19;52.87;102632.81;5013819;28;20044;-37
2022/11/12 08:45:08;;;;;;;9.02;2.80;;;;;;;19.32;53.16;102647.38;5013237;28;20530;-37
2022/11/12 08:47:34;;;;;;;4.47;2.35;;;;;;;19.31;53.17;102642.16;5013668;28;20152;-37
2022/11/12 08:50:45;;;;;;;4.93;2.83;;;;;;;19.38;53.29;102655.13;5013455;28;20673;-36
2022/11/12 08:53:12;;;;;;;5.85;1.95;;;;;;;19.45;53.13;102655.81;5003907;28;20089;-36
2022/11/12 08:55:38;;;;;;;7.45;2.50;;;;;;;19.46;53.09;102657.56;5010538;28;20037;-38
2022/11/12 08:58:05;;;;;;;5.30;2.05;;;;;;;19.44;53.17;102654.06;5020212;28;20079;-38
2022/11/12 09:00:36;;;;;;;6.47;2.15;;;;;;;19.37;53.28;102658.69;5014465;28;20030;-38
2022/11/12 09:03:03;;;;;;;3.67;2.13;;;;;;;19.47;52.96;102662.78;5009078;28;20132;-37
2022/11/12 09:05:29;;;;;;;7.25;2.63;;;;;;;19.51;52.95;102660.91;5014529;28;20049;-36
2022/11/12 09:07:59;;;;;;;19.42;2.50;;;;;;;19.40;53.07;102657.72;5011590;28;20049;-36
2022/11/12 09:10:25;;;;;;;5.05;2.38;;;;;;;19.41;53.01;102654.16;5001357;28;20037;-36
2022/11/12 09:12:51;;;;;;;5.68;2.20;;;;;;;19.39;52.85;102656.00;5002422;28;20040;-36
2022/11/12 09:15:17;;;;;;;2.72;1.80;;;;;;;19.41;52.86;102662.06;4997621;28;20076;-36
2022/11/12 09:17:42;;;;;;;5.00;2.00;;;;;;;19.37;52.65;102653.41;5001328;28;20037;-36
2022/11/12 09:20:08;;;;;;;3.70;1.98;;;;;;;19.34;52.84;102657.91;4997841;28;20745;-36
2022/11/12 09:22:33;;;;;;;5.40;2.17;;;;;;;19.32;52.56;102657.06;4998307;28;20061;-38
2022/11/12 09:24:59;;;;;;;5.13;2.50;;;;;;;19.15;52.77;102657.50;4996312;28;20045;-37
2022/11/12 09:27:27;;;;;;;3.45;1.90;;;;;;;19.12;53.03;102652.31;4999755;28;20030;-37
2022/11/12 09:29:53;;;;;;;5.35;2.17;;;;;;;19.13;53.17;102657.50;4998963;28;20041;-37
2022/11/12 09:32:18;;;;;;;5.50;2.13;;;;;;;19.15;52.80;102655.72;4998217;28;20042;-37
2022/11/12 09:34:44;;;;;;;4.45;2.30;;;;;;;19.19;53.14;102656.50;5000077;28;20061;-37
2022/11/12 09:37:09;;;;;;;7.35;2.38;;;;;;;19.10;52.99;102659.41;5000370;28;20100;-37
2022/11/12 09:39:34;;;;;;;5.05;2.10;;;;;;;19.06;53.09;102663.00;5002063;28;20549;-38
2022/11/12 09:42:06;;;;;;;7.97;2.10;;;;;;;19.10;53.01;102660.25;4998400;28;20049;-43
2022/11/12 09:44:34;;;;;;;6.32;2.13;;;;;;;19.14;52.98;102655.75;4999289;28;20048;-43
2022/11/12 09:47:14;;;;;;;4.95;2.33;;;;;;;19.22;53.11;102657.28;4996598;28;20038;-45
2022/11/12 09:49:50;;;;;;;4.95;2.08;;;;;;;19.13;52.97;102657.50;5027535;28;20041;-43
2022/11/12 09:52:23;;;;;;;5.15;1.98;;;;;;;19.11;53.06;102656.69;4993536;28;20111;-43
2022/11/12 09:55:02;;;;;;;7.93;2.10;;;;;;;19.08;53.36;102658.53;5002045;28;20786;-44
2022/11/12 09:57:27;;;;;;;6.32;2.10;;;;;;;19.13;53.30;102652.25;5009395;28;20368;-43
2022/11/12 09:59:53;;;;;;;3.55;2.20;;;;;;;19.13;53.31;102649.59;5000800;28;20136;-43
2022/11/12 10:02:27;;;;;;;5.93;2.00;;;;;;;19.17;53.35;102648.63;5003208;28;20096;-43
2022/11/12 10:05:11;;;;;;;4.10;2.03;;;;;;;19.17;53.27;102646.00;5000914;28;20053;-43
2022/11/12 10:08:05;;;;;;;3.38;1.85;;;;;;;19.21;53.11;102642.38;4993717;28;20046;-44
2022/11/12 10:10:31;;;;;;;3.53;1.83;;;;;;;19.12;53.38;102640.00;4994499;28;20786;-45
2022/11/12 10:13:38;;;;;;;3.58;1.90;;;;;;;19.12;53.30;102634.72;5001470;28;20038;-44
2022/11/12 10:16:43;;;;;;;3.67;1.95;;;;;;;19.15;53.58;102633.78;4994475;28;20454;-43
2022/11/12 10:19:21;;;;;;;4.03;2.15;;;;;;;19.14;53.37;102627.63;4997018;28;20038;-43
2022/11/12 10:21:58;;;;;;;2.67;2.05;;;;;;;19.14;53.38;102630.28;5000024;28;20041;-42
2022/11/12 10:24:26;;;;;;;2.97;1.83;;;;;;;19.17;53.30;102630.19;4997317;28;20200;-43
2022/11/12 10:26:52;;;;;;;4.18;2.40;;;;;;;19.14;53.26;102627.63;5000186;28;20042;-44
2022/11/12 10:29:31;;;;;;;3.15;2.42;;;;;;;19.20;53.35;102629.25;4989096;28;20053;-37
2022/11/12 10:32:00;;;;;;;4.15;2.20;;;;;;;19.12;53.46;102628.59;4992942;28;20042;-37
2022/11/12 10:34:26;;;;;;;5.22;2.03;;;;;;;19.11;53.75;102625.09;4997989;28;20041;-38
2022/11/12 10:36:51;;;;;;;4.07;2.08;;;;;;;19.22;53.34;102623.00;5002010;28;20036;-37
2022/11/12 10:39:33;;;;;;;3.80;1.98;;;;;;;19.20;53.28;102616.06;4996228;28;20030;-38
2022/11/12 10:42:05;;;;;;;4.72;1.70;;;;;;;19.12;53.67;102623.31;4996033;28;20738;-43
2022/11/12 10:44:30;;;;;;;2.58;1.83;;;;;;;19.09;53.76;102619.00;4990791;28;20100;-43
2022/11/12 10:47:32;;;;;;;2.92;2.00;;;;;;;19.16;53.45;102614.44;4998714;28;20041;-44
2022/11/12 10:50:25;;;;;;;2.90;1.88;;;;;;;19.15;53.45;102610.06;4993402;28;20068;-47
2022/11/12 10:52:57;;;;;;;3.60;1.80;;;;;;;19.20;53.42;102611.66;4990926;28;20073;-41
2022/11/12 10:55:29;;;;;;;3.35;1.88;;;;;;;19.19;53.57;102609.09;4994839;28;20145;-41
2022/11/12 10:58:09;;;;;;;3.50;1.95;;;;;;;19.08;53.63;102604.09;5006355;28;20056;-41
2022/11/12 11:00:56;;;;;;;2.33;2.00;;;;;;;19.05;54.17;102604.19;4995453;28;20054;-40
2022/11/12 11:03:25;;;;;;;3.42;1.88;;;;;;;19.09;53.89;102605.84;4997465;28;20041;-45
2022/11/12 11:06:14;;;;;;;4.85;2.15;;;;;;;19.18;53.56;102597.69;4998075;28;20155;-41
2022/11/12 11:08:50;;;;;;;3.30;1.83;;;;;;;19.18;53.44;102594.19;5001216;28;20395;-45
2022/11/12 11:11:15;;;;;;;2.13;1.70;;;;;;;19.18;53.60;102586.28;4998786;28;20026;-46
2022/11/12 11:13:45;;;;;;;3.15;1.42;;;;;;;19.14;53.56;102589.88;4996264;28;20044;-40
2022/11/12 11:16:19;;;;;;;3.25;1.77;;;;;;;19.11;53.50;102593.47;4996876;28;20046;-41
2022/11/12 11:18:51;;;;;;;2.95;1.88;;;;;;;19.11;53.68;102593.47;5003261;28;20029;-41
2022/11/12 11:21:19;;;;;;;2.95;1.95;;;;;;;19.12;53.78;102592.56;4995822;28;20149;-38
2022/11/12 11:23:52;;;;;;;2.40;1.80;;;;;;;19.17;53.84;102590.66;4998004;28;20049;-38
2022/11/12 11:26:36;;;;;;;2.78;1.60;;;;;;;19.23;53.51;102587.00;5001264;28;20380;-38
2022/11/12 11:29:14;;;;;;;2.47;1.67;;;;;;;19.19;53.59;102586.22;4996573;28;20128;-37
2022/11/12 11:31:49;;;;;;;3.53;1.85;;;;;;;19.13;53.63;102590.81;4994493;28;20128;-47
2022/11/12 11:34:45;;;;;;;2.90;1.80;;;;;;;19.13;53.75;102581.13;4995983;28;20083;-47
2022/11/12 11:37:28;;;;;;;3.88;1.60;;;;;;;19.12;53.90;102578.53;4995369;28;20121;-44
2022/11/12 11:40:05;;;;;;;4.35;1.85;;;;;;;19.15;53.76;102565.28;4998290;28;20061;-43
2022/11/12 11:42:52;;;;;;;2.55;1.73;;;;;;;19.16;53.65;102551.22;4992328;28;20121;-44
2022/11/12 11:45:24;;;;;;;1.98;1.77;;;;;;;19.18;53.76;102550.25;4992492;28;20045;-44
2022/11/12 11:47:57;;;;;;;4.72;1.70;;;;;;;19.16;53.63;102549.41;4982911;28;20415;-44
2022/11/12 11:50:42;;;;;;;4.63;1.95;;;;;;;19.25;53.69;102551.78;4992869;28;20511;-40
2022/11/12 11:53:28;;;;;;;2.95;1.92;;;;;;;19.20;53.58;102551.06;4990527;28;20111;-40
2022/11/12 11:55:58;;;;;;;5.68;1.60;;;;;;;19.15;53.71;102558.25;4992910;28;20042;-40
2022/11/12 11:58:35;;;;;;;2.33;1.60;;;;;;;19.17;53.49;102547.66;4997035;28;20041;-40
2022/11/12 12:01:19;;;;;;;3.20;1.75;;;;;;;19.20;53.35;102553.69;5002516;28;20053;-40
2022/11/12 12:04:22;;;;;;;5.90;1.70;;;;;;;19.18;53.55;102563.44;4994340;28;20025;-40
2022/11/12 12:07:08;;;;;;;4.10;1.95;;;;;;;19.15;53.17;102562.66;4993714;28;20030;-38
2022/11/12 12:09:42;;;;;;;6.95;1.95;;;;;;;19.08;53.30;102564.59;5001648;28;20442;-44
2022/11/12 12:12:10;;;;;;;;;;;;;;;19.13;53.22;102569.75;4997142;28;20128;-44
2022/11/12 12:14:57;;;;;;;9.27;1.80;;;;;;;19.16;53.45;102567.03;4995124;28;19932;-43
2022/11/12 12:17:30;;;;;;;5.88;1.70;;;;;;;19.17;53.50;102560.81;4992867;28;20042;-43
2022/11/12 12:19:59;;;;;;;5.55;2.05;;;;;;;19.20;53.21;102551.06;4987506;28;20112;-44
2022/11/12 12:22:42;;;;;;;3.83;1.83;;;;;;;19.18;53.56;102552.91;4989536;28;20096;-41
2022/11/12 12:25:20;;;;;;;3.53;1.80;;;;;;;19.16;53.98;102545.94;4989344;28;20045;-40
2022/11/12 12:27:52;;;;;;;7.32;2.25;;;;;;;19.14;53.92;102538.06;4991826;28;20112;-41
2022/11/12 12:30:23;;;;;;;6.47;1.83;;;;;;;19.15;53.98;102531.03;4997332;28;20033;-40
2022/11/12 12:32:53;;;;;;;7.32;1.67;;;;;;;19.13;53.93;102525.78;4996951;28;20117;-39
2022/11/12 12:35:43;;;;;;;5.28;1.65;;;;;;;19.19;54.23;102535.31;5000259;28;20034;-46
2022/11/12 12:38:39;;;;;;;3.03;1.40;;;;;;;19.17;53.89;102524.81;4996700;28;20112;-44
2022/11/12 12:41:31;;;;;;;4.35;1.75;;;;;;;19.18;54.31;102518.66;4995071;28;20042;-45
2022/11/12 12:43:57;;;;;;;6.85;1.75;;;;;;;19.18;54.61;102526.53;4994375;28;20511;-44
2022/11/12 12:46:26;;;;;;;5.63;1.73;;;;;;;19.11;54.13;102521.47;5001990;28;20068;-43
2022/11/12 12:48:54;;;;;;;5.68;1.80;;;;;;;19.08;54.91;102526.84;4994760;28;20371;-44
2022/11/12 12:51:20;;;;;;;3.13;1.70;;;;;;;19.10;54.45;102523.28;4997279;28;20697;-43
2022/11/12 12:53:46;;;;;;;2.72;1.58;;;;;;;19.15;54.17;102524.00;4987409;28;20048;-43
2022/11/12 12:56:11;;;;;;;2.70;1.45;;;;;;;19.11;54.15;102519.72;4988523;28;20038;-44
2022/11/12 12:58:39;;;;;;;3.67;1.33;;;;;;;19.15;54.10;102523.13;4998509;28;20049;-44
2022/11/12 13:01:12;;;;;;;2.05;1.40;;;;;;;19.17;54.30;102514.28;4992338;28;20050;-38
2022/11/12 13:03:43;;;;;;;1.73;1.50;;;;;;;19.17;53.85;102513.41;4987550;28;20645;-38
2022/11/12 13:06:23;;;;;;;3.30;1.80;;;;;;;19.08;54.82;102514.53;4998185;28;20099;-37
2022/11/12 13:08:55;;;;;;;5.35;1.92;;;;;;;19.09;54.73;102507.50;4996101;28;20038;-37
2022/11/12 13:14:44;;;;;;;3.05;1.60;;;;;;;19.14;54.23;102493.28;4995975;28;20399;-44
2022/11/12 13:17:10;;;;;;;4.85;1.63;;;;;;;19.17;54.32;102497.59;4994399;28;20067;-46
2022/11/12 13:19:58;;;;;;;4.05;2.03;;;;;;;19.20;54.19;102500.13;5019815;28;20080;-38
2022/11/12 13:22:23;;;;;;;2.20;1.55;;;;;;;19.14;54.45;102495.91;5004709;28;20059;-43
2022/11/12 13:25:07;;;;;;;3.88;1.80;;;;;;;19.22;54.27;102493.91;5001538;28;20748;-43
2022/11/12 13:27:38;;;;;;;2.47;1.80;;;;;;;19.19;54.10;102501.91;5000581;28;20037;-40
2022/11/12 13:30:13;;;;;;;4.07;1.48;;;;;;;19.25;53.63;102490.34;4999543;28;20056;-40
2022/11/12 13:32:50;;;;;;;4.70;1.85;;;;;;;19.25;54.39;102487.72;5000016;28;20042;-40
2022/11/12 13:35:15;;;;;;;3.30;1.80;;;;;;;19.31;53.76;102481.44;4995934;28;20038;-40
2022/11/12 13:38:07;;;;;;;4.05;1.70;;;;;;;19.32;53.86;102486.63;4998562;28;20048;-40
2022/11/12 13:40:32;;;;;;;4.22;1.60;;;;;;;19.25;53.99;102488.56;5000540;28;20042;-40
2022/11/12 13:43:04;;;;;;;6.38;2.05;;;;;;;19.19;54.50;102487.91;5000230;28;20096;-40
2022/11/12 13:45:36;;;;;;;5.10;1.60;;;;;;;19.28;54.25;102484.13;4999285;28;20087;-40
2022/11/12 13:48:07;;;;;;;2.60;1.42;;;;;;;19.29;54.28;102483.22;5003937;28;20046;-44
2022/11/12 13:50:32;;;;;;;5.72;2.00;;;;;;;19.27;54.26;102483.25;4999204;28;20040;-45
2022/11/12 13:52:59;;;;;;;3.75;1.60;;;;;;;19.31;54.00;102477.03;5000097;28;20045;-47
2022/11/12 13:55:25;;;;;;;2.78;1.63;;;;;;;19.21;54.03;102479.03;4995335;28;20072;-46
2022/11/12 13:57:55;;;;;;;2.45;1.30;;;;;;;19.27;53.56;102483.25;4995747;28;20030;-43
2022/11/12 14:00:25;;;;;;;1.77;1.63;;;;;;;19.12;53.65;102475.81;4995985;28;20496;-43
2022/11/12 14:02:56;;;;;;;10.43;2.85;;;;;;;19.14;53.87;102481.88;5001561;28;20094;-44
2022/11/12 14:05:27;;;;;;;2.75;1.35;;;;;;;19.14;53.70;102481.88;5001756;28;20089;-44
2022/11/12 14:07:55;;;;;;;2.70;1.50;;;;;;;19.15;53.76;102475.72;4995714;28;20034;-43
2022/11/12 14:10:47;;;;;;;4.05;1.45;;;;;;;19.20;53.68;102481.69;4999722;28;20125;-43
2022/11/12 14:13:37;;;;;;;3.28;1.60;;;;;;;19.18;53.60;102478.25;4997969;28;20109;-44
2022/11/12 14:16:24;;;;;;;4.45;2.00;;;;;;;19.20;53.76;102469.41;4994605;28;20030;-47
2022/11/12 14:19:11;;;;;;;3.33;1.58;;;;;;;19.13;53.60;102469.63;4998896;28;20141;-43
2022/11/12 14:21:36;;;;;;;2.55;1.48;;;;;;;19.13;53.74;102475.75;4999754;28;20180;-45
2022/11/12 14:24:03;;;;;;;2.65;1.63;;;;;;;19.12;53.81;102475.81;5002154;28;20050;-44
2022/11/12 14:26:34;;;;;;;3.28;1.65;;;;;;;19.22;53.96;102474.63;5003052;28;20619;-43
2022/11/12 14:28:59;;;;;;;3.65;1.65;;;;;;;19.15;53.80;102473.94;4995451;28;20037;-44
2022/11/12 14:31:25;;;;;;;2.22;1.40;;;;;;;19.19;53.84;102469.44;5002515;28;20034;-44
2022/11/12 14:33:50;;;;;;;6.80;2.10;;;;;;;19.24;53.58;102465.78;5002182;28;20700;-37
2022/11/12 14:36:17;;;;;;;6.00;2.53;;;;;;;19.13;53.90;102465.19;4996991;28;20042;-38
2022/11/12 14:38:56;;;;;;;3.45;2.20;;;;;;;19.08;54.40;102451.31;4998614;28;20042;-43
2022/11/12 14:41:23;;;;;;;8.35;2.72;;;;;;;19.13;53.85;102452.03;5001923;28;20054;-43
2022/11/12 14:43:54;;;;;;;5.10;2.47;;;;;;;19.23;53.57;102458.75;4997399;28;20042;-43
2022/11/12 14:46:34;;;;;;;6.70;2.88;;;;;;;19.32;53.92;102446.25;5001936;28;20498;-43
2022/11/12 14:49:11;;;;;;;6.65;2.70;;;;;;;19.19;53.74;102451.84;4999290;28;20046;-46
2022/11/12 14:51:46;;;;;;;10.93;2.97;;;;;;;19.57;53.68;102444.59;5001042;28;20494;-42
2022/11/12 14:54:24;;;;;;;8.45;3.45;;;;;;;19.56;52.95;102442.84;4997316;28;20026;-44
2022/11/12 14:56:50;;;;;;;8.15;2.75;;;;;;;19.48;54.04;102442.22;4996835;28;20033;-51
2022/11/12 14:59:16;;;;;;;8.18;3.15;;;;;;;19.46;53.37;102444.06;4997229;28;20045;-45
2022/11/12 15:02:06;;;;;;;10.63;3.45;;;;;;;19.64;52.95;102436.41;5000951;28;20156;-41
2022/11/12 15:04:59;;;;;;;11.73;3.35;;;;;;;19.48;53.27;102431.69;4992930;28;20041;-43
2022/11/12 15:07:27;;;;;;;15.85;3.80;;;;;;;20.18;61.12;102446.06;4990869;28;20046;-38
2022/11/12 15:09:53;;;;;;;13.48;4.22;;;;;;;19.77;52.79;102435.09;4994675;28;20102;-40
2022/11/12 15:12:21;;;;;;;13.65;4.10;;;;;;;19.52;53.65;102431.53;4999946;28;20045;-41
2022/11/12 15:14:47;;;;;;;29.38;4.80;;;;;;;19.55;53.41;102436.69;4999434;28;20042;-39
2022/11/12 15:17:33;;;;;;;18.52;4.22;;;;;;;19.47;53.60;102432.59;4999837;28;20069;-39
2022/11/12 15:20:13;;;;;;;16.95;4.63;;;;;;;19.40;53.72;102434.53;4996391;28;20084;-40
2022/11/12 15:22:38;;;;;;;19.65;4.68;;;;;;;19.40;53.58;102431.91;4995401;28;20136;-41
2022/11/12 15:25:25;;;;;;;20.95;4.38;;;;;;;19.45;53.72;102431.78;4994101;28;20044;-42
2022/11/12 15:27:51;;;;;;;15.25;4.07;;;;;;;19.46;53.57;102422.97;5003540;28;20109;-41
2022/11/12 15:30:24;;;;;;;16.17;4.13;;;;;;;19.43;53.96;102420.44;4996222;28;20022;-43
2022/11/12 15:33:08;;;;;;;13.15;3.58;;;;;;;19.46;53.89;102415.06;4999416;28;20538;-44
2022/11/12 15:35:44;;;;;;;14.50;4.10;;;;;;;19.68;53.32;102419.59;4992581;28;20056;-44
2022/11/12 15:38:19;;;;;;;19.85;4.38;;;;;;;19.76;53.03;102416.69;4998748;28;20038;-44
2022/11/12 15:40:45;;;;;;;12.80;3.72;;;;;;;19.78;53.08;102413.13;4994270;28;20038;-46
2022/11/12 15:43:17;;;;;;;10.63;3.63;;;;;;;19.77;53.02;102408.75;4989651;28;20057;-44
2022/11/12 15:45:47;;;;;;;17.48;4.18;;;;;;;19.77;53.02;102400.84;4996843;28;20071;-44
2022/11/12 15:48:12;;;;;;;10.75;3.90;;;;;;;19.74;53.17;102402.69;4990080;28;20022;-43
2022/11/12 15:50:38;;;;;;;13.77;4.38;;;;;;;19.70;53.18;102401.94;4994807;28;20045;-41
2022/11/12 15:53:04;;;;;;;8.73;3.22;;;;;;;19.69;53.26;102407.28;4996819;28;20096;-40
2022/11/12 15:55:31;;;;;;;14.88;3.83;;;;;;;19.66;53.32;102405.59;4992078;28;20029;-43
2022/11/12 15:57:57;;;;;;;9.60;3.78;;;;;;;19.64;53.29;102406.56;4986938;28;20046;-41
2022/11/12 16:00:25;;;;;;;11.95;4.03;;;;;;;19.62;53.47;102408.38;4990562;28;20557;-40
2022/11/12 16:02:58;;;;;;;10.95;3.33;;;;;;;19.60;53.54;102407.56;4989754;28;20046;-42
2022/11/12 16:05:23;;;;;;;14.93;3.72;;;;;;;19.57;53.61;102405.91;4995438;28;20030;-41
2022/11/12 16:07:49;;;;;;;10.13;4.22;;;;;;;19.54;53.57;102406.00;4998679;28;20045;-43
2022/11/12 16:10:16;;;;;;;12.35;3.38;;;;;;;19.52;53.67;102402.53;4993691;28;20491;-44
2022/11/12 16:12:43;;;;;;;10.63;3.80;;;;;;;19.51;53.75;102402.59;4996436;28;20096;-43
2022/11/12 16:15:17;;;;;;;8.13;3.03;;;;;;;19.50;53.69;102392.94;4990598;28;20023;-42
2022/11/12 16:17:43;;;;;;;10.02;3.00;;;;;;;19.49;53.68;102393.88;4995576;28;20041;-41
2022/11/12 16:20:22;;;;;;;13.48;3.25;;;;;;;19.48;53.82;102394.78;4991592;28;20061;-42
2022/11/12 16:22:49;;;;;;;9.82;2.53;;;;;;;19.45;53.76;102392.25;4993225;28;20037;-41
2022/11/12 16:25:15;;;;;;;9.70;3.70;;;;;;;19.43;53.83;102389.66;5001870;28;20041;-41
2022/11/12 16:27:41;;;;;;;12.32;3.60;;;;;;;19.42;53.79;102393.22;4994509;28;20022;-41
2022/11/12 16:30:18;;;;;;;7.20;3.05;;;;;;;19.40;53.82;102400.28;4998899;28;20443;-41
2022/11/12 16:32:45;;;;;;;11.40;3.72;;;;;;;19.39;53.89;102403.00;4997065;28;20042;-43
2022/11/12 16:35:11;;;;;;;12.88;3.70;;;;;;;19.39;53.94;102397.72;4997922;28;20042;-44
2022/11/12 16:37:39;;;;;;;8.95;3.50;;;;;;;19.37;53.76;102399.56;4997729;28;20051;-46
2022/11/12 16:40:08;;;;;;;11.73;3.22;;;;;;;19.35;54.00;102390.81;5002523;28;20560;-43
2022/11/12 16:42:33;;;;;;;9.48;3.10;;;;;;;19.34;53.98;102397.00;4994336;28;20518;-41
2022/11/12 16:44:59;;;;;;;9.38;3.60;;;;;;;19.34;54.14;102399.66;5000063;28;20050;-41
2022/11/12 16:47:24;;;;;;;9.23;3.17;;;;;;;19.30;54.07;102395.38;4996617;28;20795;-41
2022/11/12 16:49:50;;;;;;;7.47;2.97;;;;;;;19.28;54.12;102402.44;4995500;28;20045;-41
2022/11/12 16:52:15;;;;;;;7.40;2.90;;;;;;;19.28;53.95;102400.72;4997493;28;20161;-40
2022/11/12 16:54:40;;;;;;;11.48;3.50;;;;;;;19.28;53.97;102399.81;4993119;28;21149;-45
2022/11/12 16:57:09;;;;;;;9.63;2.80;;;;;;;19.25;54.04;102391.06;5003103;28;20208;-47
2022/11/12 16:59:35;;;;;;;9.13;2.92;;;;;;;19.25;53.94;102391.06;4997827;28;20045;-44
2022/11/12 17:02:00;;;;;;;10.57;3.30;;;;;;;19.23;54.16;102397.28;4994948;28;20042;-46
2022/11/12 17:04:26;;;;;;;8.13;3.25;;;;;;;19.22;54.15;102400.88;4997355;28;20038;-44
2022/11/12 17:06:51;;;;;;;10.98;2.78;;;;;;;19.21;54.08;102400.00;4995261;28;20026;-44